createdAt,value
2023-03-26T00:00:41.216Z,74.3694
2023-03-26T00:01:43.439Z,73.6439
2023-03-26T00:02:45.659Z,74.7519
2023-03-26T00:03:47.770Z,74.3092
2023-03-26T00:04:49.935Z,73.9178
2023-03-26T00:05:52.352Z,74.8954
2023-03-26T00:06:54.729Z,74.5284
2023-03-26T00:07:56.906Z,74.2714
2023-03-26T00:08:59.056Z,74.2181
2023-03-26T00:10:01.439Z,74.0587
2023-03-26T00:12:05.660Z,73.9835
2023-03-26T00:13:07.779Z,74.4615
2023-03-26T00:14:09.979Z,73.5849
2023-03-26T00:15:12.068Z,74.3538
2023-03-26T00:16:14.264Z,74.1023
2023-03-26T00:17:16.452Z,74.1871
2023-03-26T00:18:18.612Z,73.2152
2023-03-26T00:19:20.787Z,72.5594
2023-03-26T00:21:25.023Z,73.4505
2023-03-26T00:22:27.232Z,73.1213
2023-03-26T00:23:29.385Z,74.3284
2023-03-26T00:24:31.547Z,74.9680
2023-03-26T00:25:33.730Z,75.1966
2023-03-26T00:27:37.906Z,72.5961
2023-03-26T00:28:40.134Z,74.8893
2023-03-26T00:29:42.240Z,75.4543
2023-03-26T00:30:44.421Z,73.6277
2023-03-26T00:31:46.791Z,73.2324
2023-03-26T00:32:53.327Z,73.0989
2023-03-26T00:33:52.684Z,73.9307
2023-03-26T00:34:54.805Z,74.7729
2023-03-26T00:35:57.126Z,72.9216
2023-03-26T00:36:59.475Z,72.2528
2023-03-26T00:38:01.655Z,73.2079
2023-03-26T00:39:03.813Z,73.5631
2023-03-26T00:40:05.995Z,73.4326
2023-03-26T00:41:08.181Z,72.2773
2023-03-26T00:42:10.390Z,72.8058
2023-03-26T00:43:12.547Z,72.0678
2023-03-26T00:44:14.711Z,72.8420
2023-03-26T00:45:16.885Z,72.3332
2023-03-26T00:46:19.128Z,75.1095
2023-03-26T00:47:21.304Z,75.6318
2023-03-26T00:48:31.576Z,74.6444
2023-03-26T00:49:27.221Z,73.7336
2023-03-26T00:50:29.376Z,74.0201
2023-03-26T00:51:31.574Z,74.7105
2023-03-26T00:52:33.769Z,75.9053
2023-03-26T00:54:38.098Z,75.2040
2023-03-26T00:55:40.296Z,73.9901
2023-03-26T00:56:42.425Z,73.9268
2023-03-26T00:57:44.559Z,74.9986
2023-03-26T00:58:46.697Z,75.6307
2023-03-26T00:59:48.877Z,76.6160
2023-03-26T01:00:50.984Z,76.4695
2023-03-26T01:02:55.270Z,75.7511
2023-03-26T01:04:07.601Z,75.5740
2023-03-26T01:05:01.131Z,74.8463
2023-03-26T01:06:03.325Z,75.7469
2023-03-26T01:07:05.476Z,76.5480
2023-03-26T01:08:07.661Z,76.5066
2023-03-26T01:09:09.827Z,75.6150
2023-03-26T01:11:14.207Z,76.8984
2023-03-26T01:12:16.616Z,77.1472
2023-03-26T01:13:18.753Z,76.3468
2023-03-26T01:14:20.947Z,77.0429
2023-03-26T01:15:23.103Z,77.0927
2023-03-26T01:16:25.306Z,75.8219
2023-03-26T01:17:27.469Z,77.4552
2023-03-26T01:18:29.705Z,76.1381
2023-03-26T01:19:31.838Z,76.9066
2023-03-26T01:20:33.961Z,76.9012
2023-03-26T01:21:36.103Z,77.8241
2023-03-26T01:22:38.275Z,77.7029
2023-03-26T01:23:40.352Z,77.3268
2023-03-26T01:24:42.564Z,77.1351
2023-03-26T01:25:44.703Z,78.1751
2023-03-26T01:26:46.896Z,77.7179
2023-03-26T01:27:49.003Z,78.4175
2023-03-26T01:28:51.223Z,77.6618
2023-03-26T01:29:53.336Z,76.5956
2023-03-26T01:30:55.529Z,77.6668
2023-03-26T01:31:57.664Z,77.7813
2023-03-26T01:32:59.912Z,77.6971
2023-03-26T01:34:02.090Z,78.2949
2023-03-26T01:35:04.268Z,77.2606
2023-03-26T01:36:06.449Z,79.2695
2023-03-26T01:37:08.724Z,77.9147
2023-03-26T01:38:11.067Z,77.7456
2023-03-26T01:39:13.729Z,78.6002
2023-03-26T01:40:15.884Z,78.3142
2023-03-26T01:41:18.114Z,78.3607
2023-03-26T01:42:20.311Z,77.5981
2023-03-26T01:43:22.517Z,78.3062
2023-03-26T01:44:24.691Z,77.6936
2023-03-26T01:45:26.914Z,78.3742
2023-03-26T01:46:29.200Z,78.7989
2023-03-26T01:47:31.362Z,79.1417
2023-03-26T01:48:33.495Z,80.6020
2023-03-26T01:49:35.734Z,80.8043
2023-03-26T01:50:37.927Z,79.0630
2023-03-26T01:51:40.273Z,78.8270
2023-03-26T01:52:42.484Z,80.3507
2023-03-26T01:53:44.665Z,79.3671
2023-03-26T01:54:46.894Z,80.3899
2023-03-26T01:55:49.046Z,79.4147
2023-03-26T01:56:51.297Z,79.9765
2023-03-26T01:57:53.460Z,79.3715
2023-03-26T01:58:55.659Z,79.7627
2023-03-26T01:59:57.882Z,80.8894
2023-03-26T02:01:00.038Z,80.1779
2023-03-26T02:02:02.331Z,81.9203
2023-03-26T02:03:04.564Z,81.3438
2023-03-26T02:04:06.864Z,81.1201
2023-03-26T02:06:11.078Z,81.7515
2023-03-26T02:07:13.267Z,81.0746
2023-03-26T02:11:23.220Z,80.8046
2023-03-26T02:13:27.744Z,79.5948
2023-03-26T02:14:29.949Z,79.1733
2023-03-26T02:15:32.131Z,79.7254
2023-03-26T02:16:34.374Z,80.3699
2023-03-26T02:17:36.623Z,80.1095
2023-03-26T02:18:38.888Z,79.6935
2023-03-26T02:20:43.071Z,81.3695
2023-03-26T02:21:45.252Z,80.4534
2023-03-26T02:22:47.480Z,79.9493
2023-03-26T02:23:49.694Z,80.8435
2023-03-26T02:24:51.878Z,80.8654
2023-03-26T02:25:54.154Z,82.4732
2023-03-26T02:26:56.711Z,81.9730
2023-03-26T02:27:58.919Z,82.0542
2023-03-26T02:29:01.174Z,81.2463
2023-03-26T02:30:03.394Z,82.2074
2023-03-26T02:31:05.632Z,81.1512
2023-03-26T02:32:07.823Z,81.1681
2023-03-26T02:33:10.072Z,82.7635
2023-03-26T02:34:12.256Z,83.2920
2023-03-26T02:35:14.551Z,82.0737
2023-03-26T02:36:16.883Z,81.9778
2023-03-26T02:37:19.139Z,81.9072
2023-03-26T02:38:21.364Z,81.3851
2023-03-26T02:39:23.812Z,82.7301
2023-03-26T02:40:25.989Z,82.2692
2023-03-26T02:41:28.219Z,82.3335
2023-03-26T02:42:30.405Z,81.8337
2023-03-26T02:43:32.603Z,80.9509
2023-03-26T02:45:36.954Z,81.4930
2023-03-26T02:46:39.182Z,80.7852
2023-03-26T02:47:41.425Z,80.1415
2023-03-26T02:48:43.623Z,80.4277
2023-03-26T02:49:45.896Z,80.1335
2023-03-26T02:50:48.052Z,79.9352
2023-03-26T02:51:50.275Z,79.6045
2023-03-26T02:52:52.433Z,78.8713
2023-03-26T02:53:54.667Z,79.7650
2023-03-26T02:54:56.864Z,80.1902
2023-03-26T02:57:01.176Z,79.3330
2023-03-26T02:58:03.390Z,80.1884
2023-03-26T02:59:05.630Z,79.4260
2023-03-26T03:00:07.867Z,80.2831
2023-03-26T03:01:10.090Z,79.4301
2023-03-26T03:02:12.308Z,79.9317
2023-03-26T03:03:14.460Z,80.3470
2023-03-26T03:04:16.731Z,80.2252
2023-03-26T03:05:18.965Z,81.1377
2023-03-26T03:06:21.133Z,79.7865
2023-03-26T03:07:23.396Z,79.4611
2023-03-26T03:08:25.623Z,81.3645
2023-03-26T03:09:27.791Z,80.5163
2023-03-26T03:10:29.940Z,80.9688
2023-03-26T03:11:32.187Z,80.6703
2023-03-26T03:12:34.389Z,81.0996
2023-03-26T03:13:36.568Z,82.6822
2023-03-26T03:14:38.745Z,81.8466
2023-03-26T03:15:40.930Z,81.4129
2023-03-26T03:16:43.158Z,82.0842
2023-03-26T03:17:45.423Z,82.2034
2023-03-26T03:18:47.595Z,83.7118
2023-03-26T03:19:49.750Z,85.2378
2023-03-26T03:20:51.986Z,83.7414
2023-03-26T03:21:54.163Z,84.5508
2023-03-26T03:22:56.466Z,84.6719
2023-03-26T03:24:00.071Z,86.8355
2023-03-26T03:25:02.712Z,85.1248
2023-03-26T03:26:04.941Z,86.0591
2023-03-26T03:27:07.127Z,84.7019
2023-03-26T03:28:09.274Z,85.1025
2023-03-26T03:29:11.503Z,85.9147
2023-03-26T03:30:13.735Z,85.5956
2023-03-26T03:31:15.936Z,84.5426
2023-03-26T03:32:18.132Z,84.4408
2023-03-26T03:33:20.331Z,84.6628
2023-03-26T03:34:22.517Z,85.7318
2023-03-26T03:35:24.805Z,83.8930
2023-03-26T03:36:27.051Z,84.6879
2023-03-26T03:37:29.221Z,85.3630
2023-03-26T03:38:31.422Z,84.8026
2023-03-26T03:39:33.675Z,83.3258
2023-03-26T03:40:35.856Z,83.0180
2023-03-26T03:41:38.069Z,84.2058
2023-03-26T03:42:40.310Z,86.1475
2023-03-26T03:44:44.702Z,87.4289
2023-03-26T03:45:46.956Z,87.6017
2023-03-26T03:46:49.200Z,87.0747
2023-03-26T03:47:51.406Z,87.1268
2023-03-26T03:48:53.580Z,88.1997
2023-03-26T03:49:55.855Z,86.2549
2023-03-26T03:50:58.112Z,88.1781
2023-03-26T03:52:00.370Z,89.1060
2023-03-26T03:53:02.577Z,87.4764
2023-03-26T03:54:04.797Z,87.2139
2023-03-26T03:55:06.994Z,85.7021
2023-03-26T03:56:09.155Z,86.1855
2023-03-26T03:57:11.502Z,86.7037
2023-03-26T03:58:13.666Z,85.5271
2023-03-26T03:59:15.863Z,85.2889
2023-03-26T04:00:18.179Z,84.1299
2023-03-26T04:01:20.350Z,83.6274
2023-03-26T04:02:22.618Z,85.1766
2023-03-26T04:03:33.489Z,84.1656
2023-03-26T04:04:28.516Z,84.2167
2023-03-26T04:05:30.702Z,84.7923
2023-03-26T04:06:32.893Z,85.0892
2023-03-26T04:07:35.063Z,84.6142
2023-03-26T04:08:37.275Z,84.2298
2023-03-26T04:09:39.503Z,83.6262
2023-03-26T04:13:47.857Z,83.1598
2023-03-26T04:14:50.076Z,84.1717
2023-03-26T04:15:52.425Z,86.4951
2023-03-26T04:17:56.878Z,85.0919
2023-03-26T04:18:59.114Z,83.5099
2023-03-26T04:20:01.293Z,85.0226
2023-03-26T04:21:03.500Z,84.3188
2023-03-26T04:22:05.699Z,85.5253
2023-03-26T04:23:07.916Z,84.4385
2023-03-26T04:24:10.122Z,85.2586
2023-03-26T04:25:12.260Z,85.6688
2023-03-26T04:26:14.515Z,85.5143
2023-03-26T04:27:16.653Z,86.4194
2023-03-26T04:28:18.887Z,83.7865
2023-03-26T04:29:21.082Z,84.8980
2023-03-26T04:30:23.285Z,85.1290
2023-03-26T04:31:25.446Z,83.6639
2023-03-26T04:32:27.689Z,81.7319
2023-03-26T04:33:29.837Z,81.4679
2023-03-26T04:35:34.147Z,82.8138
2023-03-26T04:36:36.281Z,83.1412
2023-03-26T04:37:38.485Z,83.2295
2023-03-26T04:38:40.700Z,84.0272
2023-03-26T04:39:42.863Z,83.2575
2023-03-26T04:40:45.101Z,83.4772
2023-03-26T04:41:47.358Z,82.9653
2023-03-26T04:42:49.606Z,82.5221
2023-03-26T04:44:53.842Z,85.3782
2023-03-26T04:45:56.125Z,84.0656
2023-03-26T04:46:58.635Z,82.4891
2023-03-26T04:48:00.881Z,82.8483
2023-03-26T04:49:03.184Z,82.6784
2023-03-26T04:50:05.404Z,84.0294
2023-03-26T04:51:07.658Z,83.6221
2023-03-26T04:52:09.865Z,82.6381
2023-03-26T04:53:12.033Z,83.2791
2023-03-26T04:54:14.264Z,83.8111
2023-03-26T04:56:18.509Z,84.2598
2023-03-26T04:57:20.686Z,83.2006
2023-03-26T04:58:22.873Z,83.0289
2023-03-26T04:59:25.081Z,83.5322
2023-03-26T05:00:27.269Z,83.7338
2023-03-26T05:01:29.533Z,83.8609
2023-03-26T05:02:31.830Z,83.2331
2023-03-26T05:03:34.050Z,84.1888
2023-03-26T05:04:36.274Z,84.3030
2023-03-26T05:05:38.492Z,83.0995
2023-03-26T05:06:40.675Z,83.5121
2023-03-26T05:07:42.906Z,85.4701
2023-03-26T05:08:45.079Z,83.6382
2023-03-26T05:09:47.308Z,85.3774
2023-03-26T05:10:49.460Z,86.4017
2023-03-26T05:12:53.686Z,84.3049
2023-03-26T05:13:55.892Z,84.3847
2023-03-26T05:14:58.099Z,85.6151
2023-03-26T05:16:00.282Z,85.2207
2023-03-26T05:17:02.508Z,84.9161
2023-03-26T05:18:04.722Z,83.4099
2023-03-26T05:21:11.074Z,84.2565
2023-03-26T05:22:13.273Z,83.5063
2023-03-26T05:23:15.518Z,85.9736
2023-03-26T05:24:17.631Z,83.9966
2023-03-26T05:25:19.900Z,83.4582
2023-03-26T05:26:22.148Z,83.0239
2023-03-26T05:27:24.327Z,83.1816
2023-03-26T05:28:26.546Z,84.0246
2023-03-26T05:29:28.799Z,84.0334
2023-03-26T05:30:30.994Z,84.0846
2023-03-26T05:31:33.182Z,85.9791
2023-03-26T05:32:35.392Z,83.8609
2023-03-26T05:33:37.751Z,85.2970
2023-03-26T05:34:40.016Z,85.7235
2023-03-26T05:35:42.281Z,85.0976
2023-03-26T05:36:44.442Z,83.2995
2023-03-26T05:37:46.653Z,82.1166
2023-03-26T05:38:48.819Z,82.5665
2023-03-26T05:39:51.056Z,83.4997
2023-03-26T05:40:53.595Z,85.8957
2023-03-26T05:41:55.994Z,84.1211
2023-03-26T05:44:00.224Z,86.8474
2023-03-26T05:45:02.445Z,87.1581
2023-03-26T05:46:04.647Z,87.1286
2023-03-26T05:47:06.872Z,87.2243
2023-03-26T05:48:09.051Z,88.3800
2023-03-26T05:49:11.266Z,87.6038
2023-03-26T05:50:13.431Z,88.8357
2023-03-26T05:51:15.701Z,90.0393
2023-03-26T05:52:17.939Z,90.0650
2023-03-26T05:54:22.261Z,92.0093
2023-03-26T05:55:24.508Z,90.5100
2023-03-26T05:57:28.892Z,91.2718
2023-03-26T05:58:31.139Z,90.8354
2023-03-26T05:59:33.349Z,89.8100
2023-03-26T06:00:35.509Z,92.2786
2023-03-26T06:01:37.711Z,92.6686
2023-03-26T06:02:39.911Z,92.7973
2023-03-26T06:03:42.168Z,92.3538
2023-03-26T06:04:44.393Z,93.4948
2023-03-26T06:05:46.623Z,93.9871
2023-03-26T06:06:48.787Z,94.8850
2023-03-26T06:07:51.033Z,94.7805
2023-03-26T06:09:01.395Z,93.5012
2023-03-26T06:09:56.867Z,94.8548
2023-03-26T06:10:59.043Z,94.8744
2023-03-26T06:12:01.220Z,94.6936
2023-03-26T06:13:03.490Z,94.4444
2023-03-26T06:14:05.709Z,94.2289
2023-03-26T06:15:07.860Z,94.5476
2023-03-26T06:16:10.134Z,94.5156
2023-03-26T06:17:13.746Z,92.4609
2023-03-26T06:18:15.984Z,92.8472
2023-03-26T06:19:18.122Z,90.6807
2023-03-26T06:20:20.341Z,91.7683
2023-03-26T06:21:22.611Z,90.6618
2023-03-26T06:22:24.839Z,91.4222
2023-03-26T06:23:27.019Z,92.2575
2023-03-26T06:24:29.161Z,92.7758
2023-03-26T06:25:31.355Z,92.8915
2023-03-26T06:26:33.563Z,91.5881
2023-03-26T06:27:35.763Z,90.0894
2023-03-26T06:28:37.935Z,92.1573
2023-03-26T06:29:40.150Z,93.1354
2023-03-26T06:30:42.339Z,90.8350
2023-03-26T06:31:44.563Z,90.1833
2023-03-26T06:32:46.792Z,90.2407
2023-03-26T06:33:48.999Z,92.6861
2023-03-26T06:34:51.234Z,93.6477
2023-03-26T06:35:53.432Z,93.7967
2023-03-26T06:36:55.625Z,93.8101
2023-03-26T06:37:57.803Z,94.2901
2023-03-26T06:40:02.012Z,92.5786
2023-03-26T06:41:04.238Z,93.4917
2023-03-26T06:42:06.452Z,92.8775
2023-03-26T06:43:10.941Z,92.6284
2023-03-26T06:44:09.093Z,94.0414
2023-03-26T06:45:11.312Z,93.9599
2023-03-26T06:46:13.552Z,94.0428
2023-03-26T06:47:15.787Z,93.1887
2023-03-26T06:48:18.019Z,94.5304
2023-03-26T06:49:20.180Z,94.3340
2023-03-26T06:50:22.452Z,94.5533
2023-03-26T06:51:24.642Z,94.2675
2023-03-26T06:52:26.873Z,92.9417
2023-03-26T06:53:29.024Z,94.3340
2023-03-26T06:54:31.288Z,92.5668
2023-03-26T06:55:33.557Z,92.8071
2023-03-26T06:56:35.729Z,93.5410
2023-03-26T06:57:37.964Z,92.9843
2023-03-26T06:58:40.233Z,93.4504
2023-03-26T06:59:42.412Z,93.6456
2023-03-26T07:00:44.731Z,94.1767
2023-03-26T07:01:46.924Z,95.0803
2023-03-26T07:02:49.128Z,94.0153
2023-03-26T07:03:51.333Z,94.3626
2023-03-26T07:04:53.522Z,94.6487
2023-03-26T07:05:55.745Z,95.4442
2023-03-26T07:06:57.970Z,94.2694
2023-03-26T07:08:00.160Z,90.1115
2023-03-26T07:10:04.417Z,87.7849
2023-03-26T07:11:06.681Z,92.6544
2023-03-26T07:12:08.863Z,89.1657
2023-03-26T07:13:11.157Z,86.2060
2023-03-26T07:14:13.383Z,87.2741
2023-03-26T07:15:15.577Z,85.2540
2023-03-26T07:16:17.789Z,84.3896
2023-03-26T07:17:19.962Z,85.4490
2023-03-26T07:18:22.199Z,85.3203
2023-03-26T07:19:24.337Z,82.1744
2023-03-26T07:21:28.608Z,85.3086
2023-03-26T07:22:30.809Z,85.6007
2023-03-26T07:23:33.169Z,85.2462
2023-03-26T07:24:35.373Z,84.7070
2023-03-26T07:25:37.606Z,84.9348
2023-03-26T07:26:39.792Z,84.7025
2023-03-26T07:27:42.021Z,83.6929
2023-03-26T07:28:44.230Z,83.9936
2023-03-26T07:29:47.949Z,85.2222
2023-03-26T07:30:50.088Z,85.5722
2023-03-26T07:31:52.530Z,85.7265
2023-03-26T07:32:54.775Z,86.3037
2023-03-26T07:33:56.957Z,86.4116
2023-03-26T07:34:59.190Z,86.9417
2023-03-26T07:36:01.370Z,87.7667
2023-03-26T07:37:03.637Z,87.7688
2023-03-26T07:38:05.853Z,88.2073
2023-03-26T07:39:08.012Z,87.2815
2023-03-26T07:40:10.261Z,86.9250
2023-03-26T07:42:14.513Z,86.4482
2023-03-26T07:43:16.668Z,86.4737
2023-03-26T07:44:18.877Z,87.2731
2023-03-26T07:45:21.082Z,89.3897
2023-03-26T07:46:23.307Z,87.3716
2023-03-26T07:48:27.654Z,85.3863
2023-03-26T07:49:29.868Z,86.3723
2023-03-26T07:50:32.077Z,86.7492
2023-03-26T07:51:34.272Z,86.4088
2023-03-26T07:52:36.499Z,85.0464
2023-03-26T07:53:38.721Z,85.5702
2023-03-26T07:54:41.026Z,85.9826
2023-03-26T07:55:43.223Z,86.2882
2023-03-26T07:56:45.558Z,85.9925
2023-03-26T07:57:47.771Z,85.8198
2023-03-26T07:58:49.912Z,85.9661
2023-03-26T08:02:58.330Z,88.8446
2023-03-26T08:05:02.756Z,87.4571
2023-03-26T08:06:05.176Z,87.1825
2023-03-26T08:07:07.343Z,86.8873
2023-03-26T08:08:09.558Z,87.5993
2023-03-26T08:09:11.742Z,89.6308
2023-03-26T08:10:13.932Z,89.2735
2023-03-26T08:12:18.130Z,89.7751
2023-03-26T08:13:20.370Z,89.4049
2023-03-26T08:14:22.572Z,89.3729
2023-03-26T08:15:24.750Z,89.0324
2023-03-26T08:17:30.647Z,89.4861
2023-03-26T08:18:29.226Z,89.4864
2023-03-26T08:19:31.453Z,88.7201
2023-03-26T08:20:33.607Z,88.2630
2023-03-26T08:21:35.837Z,88.7944
2023-03-26T08:22:37.959Z,89.0610
2023-03-26T08:23:50.371Z,88.8823
2023-03-26T08:24:43.833Z,89.1107
2023-03-26T08:25:46.061Z,89.4246
2023-03-26T08:26:48.220Z,90.2458
2023-03-26T08:27:50.448Z,89.9133
2023-03-26T08:28:52.581Z,89.3804
2023-03-26T08:29:54.761Z,90.3580
2023-03-26T08:30:57.317Z,90.9115
2023-03-26T08:32:00.024Z,91.0333
2023-03-26T08:34:04.215Z,89.9255
2023-03-26T08:35:06.421Z,90.6409
2023-03-26T08:37:10.696Z,91.5066
2023-03-26T08:38:12.889Z,90.0270
2023-03-26T08:39:15.009Z,89.8795
2023-03-26T08:41:19.229Z,90.3535
2023-03-26T08:43:23.505Z,89.8742
2023-03-26T08:44:25.703Z,89.7749
2023-03-26T08:45:27.976Z,89.4219
2023-03-26T08:46:30.159Z,89.0862
2023-03-26T08:47:32.329Z,89.3529
2023-03-26T08:48:34.625Z,89.1184
2023-03-26T08:49:36.823Z,89.7341
2023-03-26T08:50:38.977Z,88.6806
2023-03-26T08:51:41.103Z,89.1509
2023-03-26T08:52:43.332Z,89.9534
2023-03-26T08:53:45.467Z,88.7932
2023-03-26T08:54:47.695Z,88.4305
2023-03-26T08:55:49.832Z,89.6079
2023-03-26T08:57:54.074Z,89.0126
2023-03-26T08:58:56.286Z,89.1477
2023-03-26T08:59:59.278Z,88.4535
2023-03-26T09:00:58.489Z,88.2800
2023-03-26T09:02:00.735Z,89.1455
2023-03-26T09:03:02.900Z,88.1671
2023-03-26T09:04:05.108Z,87.9876
2023-03-26T09:05:07.405Z,88.8816
2023-03-26T09:06:09.515Z,90.2772
2023-03-26T09:07:11.738Z,89.4005
2023-03-26T09:09:19.153Z,89.1193
2023-03-26T09:10:17.419Z,89.9801
2023-03-26T09:11:19.627Z,89.5230
2023-03-26T09:12:22.842Z,89.4488
2023-03-26T09:13:23.208Z,90.5304
2023-03-26T09:14:25.373Z,89.7048
2023-03-26T09:15:27.534Z,88.4577
2023-03-26T09:16:29.762Z,88.7173
2023-03-26T09:18:33.959Z,85.8477
2023-03-26T09:19:36.142Z,87.9706
2023-03-26T09:20:38.422Z,88.4775
2023-03-26T09:22:42.683Z,88.0252
2023-03-26T09:23:44.865Z,87.5987
2023-03-26T09:25:49.065Z,87.1312
2023-03-26T09:26:51.277Z,85.8152
2023-03-26T09:27:53.441Z,87.2927
2023-03-26T09:28:55.613Z,87.2223
2023-03-26T09:29:57.772Z,85.6402
2023-03-26T09:30:59.976Z,85.0134
2023-03-26T09:32:02.133Z,85.1595
2023-03-26T09:33:04.324Z,85.2809
2023-03-26T09:34:06.504Z,86.0794
2023-03-26T09:35:08.648Z,86.4601
2023-03-26T09:36:11.225Z,85.9058
2023-03-26T09:37:13.442Z,85.8319
2023-03-26T09:38:15.632Z,85.7893
2023-03-26T09:39:17.802Z,85.7122
2023-03-26T09:40:19.990Z,85.1328
2023-03-26T09:41:22.200Z,85.0358
2023-03-26T09:42:24.394Z,84.7704
2023-03-26T09:44:28.670Z,83.7532
2023-03-26T09:45:30.948Z,84.1436
2023-03-26T09:47:35.182Z,84.2209
2023-03-26T09:48:37.413Z,84.5697
2023-03-26T09:49:39.557Z,83.8651
2023-03-26T09:50:41.778Z,83.3823
2023-03-26T09:51:44.038Z,83.4823
2023-03-26T09:52:46.196Z,82.4765
2023-03-26T09:53:48.355Z,82.8719
2023-03-26T09:54:50.585Z,82.9842
2023-03-26T09:56:54.876Z,82.1025
2023-03-26T09:57:56.994Z,80.6199
2023-03-26T09:58:59.193Z,78.8004
2023-03-26T10:00:01.367Z,78.9941
2023-03-26T10:01:03.636Z,79.9281
2023-03-26T10:02:05.894Z,81.1717
2023-03-26T10:03:08.148Z,80.3881
2023-03-26T10:04:10.373Z,80.5437
2023-03-26T10:05:12.597Z,81.3158
2023-03-26T10:06:14.856Z,80.6062
2023-03-26T10:07:17.020Z,79.6303
2023-03-26T10:08:19.287Z,80.5508
2023-03-26T10:09:21.439Z,81.0061
2023-03-26T10:10:23.654Z,80.7805
2023-03-26T10:11:25.814Z,80.4148
2023-03-26T10:12:28.206Z,80.5335
2023-03-26T10:13:30.497Z,80.6076
2023-03-26T10:14:32.658Z,80.7501
2023-03-26T10:15:34.961Z,79.7015
2023-03-26T10:16:37.301Z,79.5212
2023-03-26T10:17:39.569Z,78.7129
2023-03-26T10:18:41.713Z,79.6497
2023-03-26T10:19:44.236Z,79.3882
2023-03-26T10:20:46.527Z,78.0221
2023-03-26T10:21:48.718Z,77.7033
2023-03-26T10:22:50.977Z,77.9268
2023-03-26T10:23:53.120Z,77.5402
2023-03-26T10:24:55.363Z,78.0439
2023-03-26T10:25:57.673Z,78.5216
2023-03-26T10:27:09.113Z,78.3857
2023-03-26T10:28:03.589Z,78.1045
2023-03-26T10:29:05.824Z,78.3674
2023-03-26T10:30:08.014Z,78.0561
2023-03-26T10:31:10.179Z,77.8896
2023-03-26T10:32:12.452Z,77.0203
2023-03-26T10:33:14.891Z,77.6888
2023-03-26T10:34:28.659Z,77.6959
2023-03-26T10:35:20.833Z,77.5663
2023-03-26T10:37:25.153Z,76.9038
2023-03-26T10:38:27.385Z,76.9433
2023-03-26T10:39:37.216Z,77.1956
2023-03-26T10:40:33.265Z,77.2581
2023-03-26T10:41:35.498Z,77.8697
2023-03-26T10:42:37.641Z,77.9777
2023-03-26T10:43:39.829Z,77.7765
2023-03-26T10:44:42.048Z,78.0147
2023-03-26T10:45:44.340Z,77.9546
2023-03-26T10:46:46.715Z,77.7753
2023-03-26T10:47:49.129Z,78.6527
2023-03-26T10:49:53.310Z,77.7404
2023-03-26T10:50:55.785Z,76.2640
2023-03-26T10:51:58.872Z,75.5444
2023-03-26T10:53:01.083Z,75.4067
2023-03-26T10:54:03.500Z,75.3544
2023-03-26T10:55:05.695Z,76.7945
2023-03-26T10:56:07.948Z,76.9442
2023-03-26T10:57:10.317Z,76.7858
2023-03-26T10:58:12.494Z,76.4283
2023-03-26T10:59:15.057Z,76.2538
2023-03-26T11:00:17.516Z,74.8543
2023-03-26T11:01:19.790Z,74.5766
2023-03-26T11:02:29.299Z,75.2571
2023-03-26T11:03:25.937Z,75.4298
2023-03-26T11:04:28.082Z,75.2461
2023-03-26T11:05:30.366Z,75.2626
2023-03-26T11:06:32.629Z,75.6654
2023-03-26T11:07:34.821Z,75.6831
2023-03-26T11:08:36.950Z,74.6513
2023-03-26T11:09:39.207Z,73.6854
2023-03-26T11:10:41.411Z,72.9350
2023-03-26T11:11:43.932Z,73.6774
2023-03-26T11:12:46.180Z,73.9543
2023-03-26T11:13:48.361Z,74.3567
2023-03-26T11:14:50.628Z,75.0026
2023-03-26T11:15:53.046Z,74.2044
2023-03-26T11:16:55.387Z,72.6574
2023-03-26T11:17:57.614Z,71.8213
2023-03-26T11:18:59.754Z,71.1794
2023-03-26T11:20:01.953Z,71.0861
2023-03-26T11:21:19.106Z,70.8336
2023-03-26T11:22:07.964Z,72.2045
2023-03-26T11:23:10.100Z,69.7298
2023-03-26T11:24:13.264Z,70.1056
2023-03-26T11:25:15.418Z,69.9826
2023-03-26T11:26:17.690Z,70.8469
2023-03-26T11:27:21.323Z,69.7632
2023-03-26T11:28:21.140Z,69.6889
2023-03-26T11:29:32.297Z,70.3264
2023-03-26T11:30:26.917Z,70.0085
2023-03-26T11:31:29.243Z,70.4397
2023-03-26T11:32:31.513Z,70.0651
2023-03-26T11:33:33.619Z,70.2723
2023-03-26T11:34:35.822Z,69.5254
2023-03-26T11:35:40.625Z,70.1089
2023-03-26T11:36:39.150Z,68.1591
2023-03-26T11:37:41.324Z,69.2433
2023-03-26T11:39:45.581Z,70.0022
2023-03-26T11:40:47.680Z,69.0350
2023-03-26T11:41:49.880Z,69.4668
2023-03-26T11:42:52.045Z,68.7889
2023-03-26T11:43:54.368Z,68.1349
2023-03-26T11:44:56.794Z,68.3236
2023-03-26T11:45:59.131Z,67.6066
2023-03-26T11:47:01.370Z,68.3936
2023-03-26T11:48:03.571Z,68.2289
2023-03-26T11:49:05.719Z,68.7387
2023-03-26T11:52:12.000Z,67.9589
2023-03-26T11:53:14.183Z,67.7260
2023-03-26T11:54:16.405Z,67.7069
2023-03-26T11:55:18.608Z,67.6708
2023-03-26T11:56:20.837Z,67.0420
2023-03-26T11:57:23.067Z,67.3226
2023-03-26T11:58:25.261Z,65.1235
2023-03-26T11:59:27.421Z,65.8948
2023-03-26T12:01:31.792Z,65.3071
2023-03-26T12:02:34.156Z,65.1057
2023-03-26T12:04:38.524Z,64.3893
2023-03-26T12:05:40.692Z,64.0786
2023-03-26T12:06:42.794Z,65.8990
2023-03-26T12:07:44.913Z,65.4138
2023-03-26T12:08:47.093Z,65.2413
2023-03-26T12:09:49.246Z,65.8380
2023-03-26T12:10:51.427Z,65.2305
2023-03-26T12:11:53.635Z,65.8802
2023-03-26T12:12:55.822Z,65.8729
2023-03-26T12:13:58.046Z,63.8738
2023-03-26T12:15:00.204Z,64.4940
2023-03-26T12:16:02.357Z,64.8264
2023-03-26T12:17:04.623Z,64.4770
2023-03-26T12:18:27.757Z,63.6808
2023-03-26T12:19:07.848Z,61.9672
2023-03-26T12:20:09.962Z,61.5978
2023-03-26T12:21:12.248Z,62.1133
2023-03-26T12:22:14.409Z,62.2346
2023-03-26T12:23:16.707Z,62.0250
2023-03-26T12:24:18.966Z,62.5822
2023-03-26T12:25:21.181Z,62.7441
2023-03-26T12:26:23.357Z,63.2434
2023-03-26T12:27:25.511Z,62.7687
2023-03-26T12:28:27.660Z,62.6269
2023-03-26T12:29:29.807Z,63.3880
2023-03-26T12:30:32.068Z,64.2857
2023-03-26T12:31:34.270Z,63.9648
2023-03-26T12:32:45.868Z,66.9050
2023-03-26T12:33:40.220Z,70.4338
2023-03-26T12:34:42.434Z,70.9596
2023-03-26T12:35:44.695Z,72.0603
2023-03-26T12:36:46.950Z,70.7379
2023-03-26T12:39:16.731Z,68.7233
2023-03-26T12:40:09.271Z,69.3466
2023-03-26T12:40:58.524Z,68.0305
2023-03-26T12:47:56.670Z,65.7007
2023-03-26T12:47:58.583Z,65.4409
2023-03-26T12:48:16.177Z,65.3519
2023-03-26T12:49:18.934Z,64.5132
2023-03-26T12:50:34.436Z,62.2615
2023-03-26T12:51:24.900Z,59.9944
2023-03-26T12:52:27.053Z,58.5391
2023-03-26T12:54:31.285Z,57.0378
2023-03-26T12:55:33.443Z,56.6977
2023-03-26T12:57:37.991Z,58.3294
2023-03-26T12:59:42.148Z,57.3810
2023-03-26T13:00:44.259Z,57.6825
2023-03-26T13:01:46.347Z,57.9238
2023-03-26T13:02:48.611Z,57.9938
2023-03-26T13:03:52.824Z,59.4012
2023-03-26T13:05:05.050Z,61.0042
2023-03-26T13:05:58.580Z,60.1777
2023-03-26T13:07:02.268Z,61.0741
2023-03-26T13:08:04.722Z,63.5212
2023-03-26T13:09:06.922Z,64.6221
2023-03-26T13:10:09.216Z,64.3373
2023-03-26T13:11:11.464Z,64.4785
2023-03-26T13:12:13.758Z,64.5097
2023-03-26T13:13:15.881Z,63.4369
2023-03-26T13:14:18.113Z,63.7207
2023-03-26T13:15:20.326Z,63.4937
2023-03-26T13:16:22.505Z,62.2691
2023-03-26T13:17:24.893Z,63.2902
2023-03-26T13:18:27.038Z,64.1525
2023-03-26T13:19:29.221Z,65.1288
2023-03-26T13:20:31.430Z,64.5000
2023-03-26T13:21:33.630Z,63.3187
2023-03-26T13:22:35.807Z,65.2913
2023-03-26T13:23:37.937Z,63.0437
2023-03-26T13:24:40.233Z,60.1251
2023-03-26T13:25:42.333Z,58.7270
2023-03-26T13:26:44.484Z,57.5734
2023-03-26T13:27:46.586Z,59.2705
2023-03-26T13:30:52.918Z,62.9941
2023-03-26T13:31:55.352Z,63.9375
2023-03-26T13:32:57.573Z,61.4627
2023-03-26T13:33:59.765Z,62.0619
2023-03-26T13:35:01.966Z,63.5388
2023-03-26T13:36:21.768Z,65.4902
2023-03-26T13:37:07.746Z,64.1631
2023-03-26T13:39:12.002Z,60.6711
2023-03-26T13:40:14.193Z,59.2811
2023-03-26T13:42:18.516Z,61.5163
2023-03-26T13:43:20.626Z,58.1616
2023-03-26T13:44:22.806Z,58.7459
2023-03-26T13:45:24.945Z,59.6817